createdAt,value
2023-03-12T00:02:25.695Z,10.05
2023-03-12T00:07:25.284Z,6.88
2023-03-12T00:09:58.856Z,7.18
2023-03-12T00:12:28.162Z,6.72
2023-03-12T00:14:56.474Z,6.25
2023-03-12T00:17:27.092Z,7.13
2023-03-12T00:19:58.067Z,5.68
2023-03-12T00:22:29.152Z,5.43
2023-03-12T00:24:58.862Z,6.03
2023-03-12T00:27:30.421Z,6.53
2023-03-12T00:30:01.023Z,5.13
2023-03-12T00:32:30.046Z,5.40
2023-03-12T00:34:58.275Z,5.72
2023-03-12T00:37:29.405Z,5.82
2023-03-12T00:39:59.401Z,6.35
2023-03-12T00:42:29.712Z,5.47
2023-03-12T00:45:05.207Z,5.63
2023-03-12T00:47:34.660Z,5.65
2023-03-12T00:50:05.358Z,5.93
2023-03-12T00:52:33.936Z,6.57
2023-03-12T00:55:03.874Z,6.68
2023-03-12T00:57:34.839Z,7.50
2023-03-12T01:00:04.205Z,6.85
2023-03-12T01:02:39.960Z,6.43
2023-03-12T01:05:10.207Z,7.20
2023-03-12T01:07:39.403Z,7.93
2023-03-12T01:10:14.075Z,7.50
2023-03-12T01:12:42.954Z,8.07
2023-03-12T01:15:18.048Z,8.00
2023-03-12T01:17:46.552Z,8.00
2023-03-12T01:20:14.892Z,6.90
2023-03-12T01:22:44.067Z,6.72
2023-03-12T01:25:17.444Z,6.30
2023-03-12T01:27:46.834Z,7.13
2023-03-12T01:30:16.662Z,7.07
2023-03-12T01:32:45.224Z,7.75
2023-03-12T01:35:14.503Z,7.80
2023-03-12T01:37:43.050Z,7.18
2023-03-12T01:40:16.561Z,7.97
2023-03-12T01:42:45.028Z,7.63
2023-03-12T01:45:46.722Z,6.90
2023-03-12T01:48:15.158Z,5.93
2023-03-12T01:50:44.547Z,7.60
2023-03-12T01:53:13.400Z,8.40
2023-03-12T01:55:45.274Z,7.63
2023-03-12T01:58:15.969Z,9.13
2023-03-12T02:00:45.497Z,9.30
2023-03-12T02:03:14.749Z,10.70
2023-03-12T02:05:48.291Z,9.90
2023-03-12T02:08:18.219Z,10.55
2023-03-12T02:10:48.785Z,9.73
2023-03-12T02:13:17.905Z,10.70
2023-03-12T02:15:48.555Z,9.27
2023-03-12T02:18:19.131Z,7.75
2023-03-12T02:20:54.404Z,7.53
2023-03-12T02:23:30.878Z,6.60
2023-03-12T02:26:03.254Z,7.05
2023-03-12T02:28:37.757Z,6.88
2023-03-12T02:31:07.232Z,7.03
2023-03-12T02:33:36.132Z,7.80
2023-03-12T02:36:06.027Z,7.22
2023-03-12T02:38:38.230Z,8.07
2023-03-12T02:41:15.131Z,8.68
2023-03-12T02:43:47.511Z,8.93
2023-03-12T02:46:16.853Z,10.32
2023-03-12T02:48:45.491Z,10.38
2023-03-12T02:51:16.442Z,11.75
2023-03-12T02:53:45.556Z,10.10
2023-03-12T02:56:15.034Z,10.93
2023-03-12T02:58:44.978Z,11.02
2023-03-12T03:01:13.240Z,10.50
2023-03-12T03:03:42.439Z,9.85
2023-03-12T03:06:11.077Z,9.85
2023-03-12T03:08:40.041Z,10.80
2023-03-12T03:11:11.179Z,10.02
2023-03-12T03:13:41.296Z,10.57
2023-03-12T03:16:13.277Z,9.63
2023-03-12T03:18:42.413Z,9.70
2023-03-12T03:21:16.524Z,8.95
2023-03-12T03:23:45.394Z,9.18
2023-03-12T03:26:14.534Z,9.35
2023-03-12T03:28:47.220Z,8.82
2023-03-12T03:31:15.830Z,8.73
2023-03-12T03:33:45.041Z,9.52
2023-03-12T03:36:23.322Z,7.97
2023-03-12T03:38:51.859Z,7.88
2023-03-12T03:41:22.919Z,7.45
2023-03-12T03:44:00.131Z,7.15
2023-03-12T03:46:30.845Z,7.43
2023-03-12T03:48:59.708Z,6.68
2023-03-12T03:51:28.483Z,7.00
2023-03-12T03:53:58.761Z,5.93
2023-03-12T03:56:27.227Z,5.40
2023-03-12T03:59:01.412Z,5.90
2023-03-12T04:01:31.265Z,6.30
2023-03-12T04:04:00.161Z,5.55
2023-03-12T04:06:29.880Z,5.35
2023-03-12T04:08:58.473Z,5.97
2023-03-12T04:11:27.032Z,6.00
2023-03-12T04:13:58.840Z,6.10
2023-03-12T04:16:27.231Z,5.40
2023-03-12T04:18:55.512Z,6.88
2023-03-12T04:21:23.794Z,5.53
2023-03-12T04:23:52.731Z,6.85
2023-03-12T04:26:21.549Z,6.57
2023-03-12T04:28:49.769Z,6.53
2023-03-12T04:31:19.585Z,7.00
2023-03-12T04:33:50.637Z,7.72
2023-03-12T04:36:19.117Z,6.25
2023-03-12T04:38:47.393Z,7.18
2023-03-12T04:41:19.352Z,6.50
2023-03-12T04:43:48.225Z,7.55
2023-03-12T04:46:16.620Z,6.72
2023-03-12T04:48:48.620Z,7.55
2023-03-12T04:51:19.148Z,7.60
2023-03-12T04:53:47.931Z,7.93
2023-03-12T04:56:17.995Z,7.38
2023-03-12T04:58:55.418Z,7.18
2023-03-12T05:01:28.118Z,7.50
2023-03-12T05:04:03.143Z,7.72
2023-03-12T05:06:34.012Z,7.82
2023-03-12T05:09:05.109Z,8.00
2023-03-12T05:11:34.562Z,7.75
2023-03-12T05:14:03.157Z,7.78
2023-03-12T05:16:32.124Z,7.53
2023-03-12T05:19:02.479Z,7.78
2023-03-12T05:21:30.694Z,7.20
2023-03-12T05:24:00.229Z,7.38
2023-03-12T05:26:32.453Z,7.25
2023-03-12T05:29:02.845Z,6.95
2023-03-12T05:31:33.113Z,6.93
2023-03-12T05:34:03.897Z,6.90
2023-03-12T05:36:32.627Z,6.90
2023-03-12T05:39:00.991Z,6.63
2023-03-12T05:41:31.595Z,6.53
2023-03-12T05:44:01.224Z,6.38
2023-03-12T05:46:29.898Z,6.57
2023-03-12T05:48:58.080Z,6.20
2023-03-12T05:51:28.488Z,6.47
2023-03-12T05:53:56.989Z,6.43
2023-03-12T05:56:27.031Z,6.32
2023-03-12T05:58:55.401Z,6.43
2023-03-12T06:01:26.159Z,6.50
2023-03-12T06:03:56.254Z,5.70
2023-03-12T06:06:24.680Z,5.93
2023-03-12T06:08:54.278Z,6.20
2023-03-12T06:11:24.942Z,6.50
2023-03-12T06:13:53.922Z,6.07
2023-03-12T06:16:24.560Z,5.82
2023-03-12T06:18:55.469Z,7.10
2023-03-12T06:21:25.502Z,6.40
2023-03-12T06:23:55.645Z,6.68
2023-03-12T06:26:25.173Z,7.32
2023-03-12T06:29:05.244Z,6.57
2023-03-12T06:31:37.238Z,6.63
2023-03-12T06:34:10.309Z,6.82
2023-03-12T06:36:38.691Z,7.20
2023-03-12T06:39:09.600Z,6.68
2023-03-12T06:41:39.163Z,7.18
2023-03-12T06:44:08.652Z,7.80
2023-03-12T06:46:37.092Z,7.95
2023-03-12T06:49:09.273Z,8.65
2023-03-12T06:51:40.067Z,8.00
2023-03-12T06:54:10.582Z,8.23
2023-03-12T06:56:39.407Z,8.77
2023-03-12T06:59:07.687Z,9.50
2023-03-12T07:01:37.215Z,9.07
2023-03-12T07:04:06.091Z,8.40
2023-03-12T07:06:36.829Z,8.18
2023-03-12T07:09:06.925Z,9.10
2023-03-12T07:11:36.717Z,10.00
2023-03-12T07:14:05.112Z,9.18
2023-03-12T07:16:35.011Z,9.57
2023-03-12T07:19:03.791Z,8.57
2023-03-12T07:21:32.138Z,8.63
2023-03-12T07:24:02.256Z,8.60
2023-03-12T07:26:30.660Z,9.02
2023-03-12T07:29:00.204Z,8.57
2023-03-12T07:31:28.591Z,9.82
2023-03-12T07:33:59.206Z,8.60
2023-03-12T07:36:31.363Z,8.82
2023-03-12T07:38:59.788Z,9.48
2023-03-12T07:41:29.488Z,8.50
2023-03-12T07:43:59.441Z,8.38
2023-03-12T07:46:27.997Z,9.15
2023-03-12T07:48:56.234Z,9.18
2023-03-12T07:51:25.450Z,10.23
2023-03-12T07:53:53.822Z,8.55
2023-03-12T07:56:22.346Z,9.82
2023-03-12T07:58:51.463Z,8.77
2023-03-12T08:01:22.121Z,10.00
2023-03-12T08:03:50.547Z,9.30
2023-03-12T08:06:21.024Z,8.30
2023-03-12T08:08:49.634Z,8.73
2023-03-12T08:11:18.413Z,9.48
2023-03-12T08:13:46.639Z,9.20
2023-03-12T08:16:15.858Z,8.45
2023-03-12T08:18:45.971Z,8.35
2023-03-12T08:21:16.687Z,7.70
2023-03-12T08:23:46.383Z,7.85
2023-03-12T08:26:14.770Z,8.43
2023-03-12T08:28:43.028Z,8.60
2023-03-12T08:31:11.478Z,7.72
2023-03-12T08:33:43.406Z,8.23
2023-03-12T08:36:12.935Z,9.48
2023-03-12T08:38:41.329Z,9.18
2023-03-12T08:41:10.479Z,9.10
2023-03-12T08:43:38.854Z,8.00
2023-03-12T08:46:09.859Z,9.05
2023-03-12T08:48:43.295Z,8.55
2023-03-12T08:51:15.601Z,8.48
2023-03-12T08:53:45.756Z,9.27
2023-03-12T08:56:15.636Z,8.73
2023-03-12T08:58:44.909Z,8.52
2023-03-12T09:01:14.037Z,8.85
2023-03-12T09:03:42.822Z,8.32
2023-03-12T09:06:16.869Z,8.20
2023-03-12T09:08:53.669Z,8.85
2023-03-12T09:11:21.908Z,7.85
2023-03-12T09:16:39.813Z,7.78
2023-03-12T09:19:10.717Z,8.82
2023-03-12T09:21:40.963Z,8.02
2023-03-12T09:24:11.822Z,9.25
2023-03-12T09:26:42.431Z,8.85
2023-03-12T09:29:12.945Z,9.30
2023-03-12T09:31:43.521Z,9.10
2023-03-12T09:34:13.331Z,9.40
2023-03-12T09:36:46.590Z,9.43
2023-03-12T09:39:17.245Z,9.07
2023-03-12T09:41:48.731Z,10.48
2023-03-12T09:44:24.866Z,10.48
2023-03-12T09:46:55.473Z,10.07
2023-03-12T09:49:33.295Z,10.05
2023-03-12T09:52:19.660Z,10.05
2023-03-12T09:54:58.624Z,10.52
2023-03-12T09:57:29.852Z,10.77
2023-03-12T09:59:59.008Z,10.55
2023-03-12T10:02:50.953Z,10.88
2023-03-12T10:05:25.996Z,12.05
2023-03-12T10:08:23.896Z,10.45
2023-03-12T10:11:01.842Z,10.77
2023-03-12T10:13:52.648Z,11.45
2023-03-12T10:16:40.830Z,9.93
2023-03-12T10:19:31.963Z,10.80
2023-03-12T10:22:08.623Z,10.13
2023-03-12T10:24:50.856Z,9.60
2023-03-12T10:27:20.728Z,10.60
2023-03-12T10:29:54.513Z,10.85
2023-03-12T10:32:29.491Z,10.23
2023-03-12T10:35:04.527Z,9.32
2023-03-12T10:37:38.595Z,8.77
2023-03-12T10:40:29.919Z,8.80
2023-03-12T10:42:58.661Z,9.25
2023-03-12T10:45:36.225Z,8.88
2023-03-12T10:48:09.494Z,8.25
2023-03-12T10:50:43.307Z,8.32
2023-03-12T10:53:19.995Z,8.05
2023-03-12T10:56:07.000Z,7.88
2023-03-12T10:58:40.740Z,7.43
2023-03-12T11:01:21.529Z,8.20
2023-03-12T11:03:51.083Z,6.70
2023-03-12T11:06:35.301Z,8.35
2023-03-12T11:09:17.355Z,7.60
2023-03-12T11:11:51.034Z,7.63
2023-03-12T11:14:21.391Z,8.07
2023-03-12T11:16:50.056Z,7.65
2023-03-12T11:19:29.898Z,7.68
2023-03-12T11:22:00.367Z,6.65
2023-03-12T11:24:29.607Z,7.70
2023-03-12T11:27:08.902Z,7.22
2023-03-12T11:29:48.775Z,7.53
2023-03-12T11:32:20.877Z,7.30
2023-03-12T11:34:51.706Z,7.15
2023-03-12T11:37:31.667Z,6.60
2023-03-12T11:40:14.465Z,6.53
2023-03-12T11:42:57.952Z,6.20
2023-03-12T11:45:31.775Z,5.72
2023-03-12T11:48:13.098Z,5.38
2023-03-12T11:51:04.502Z,4.45
2023-03-12T11:53:47.181Z,4.85
2023-03-12T11:56:24.695Z,5.90
2023-03-12T11:59:07.084Z,4.40
2023-03-12T12:01:46.430Z,4.80
2023-03-12T12:04:47.676Z,4.05
2023-03-12T12:07:26.440Z,3.92
2023-03-12T12:10:02.830Z,3.00
2023-03-12T12:12:49.525Z,3.10
2023-03-12T12:15:29.589Z,3.47
2023-03-12T12:18:14.371Z,2.70
2023-03-12T12:20:49.773Z,3.08
2023-03-12T12:23:26.188Z,2.72
2023-03-12T12:26:03.349Z,2.33
2023-03-12T12:29:00.731Z,2.45
2023-03-12T12:31:41.458Z,2.70
2023-03-12T12:34:36.846Z,2.15
2023-03-12T12:37:23.203Z,1.98
2023-03-12T12:39:59.393Z,1.88
2023-03-12T12:42:33.390Z,3.33
2023-03-12T12:45:06.985Z,2.15
2023-03-12T12:47:44.116Z,1.85
2023-03-12T12:50:19.242Z,3.55
2023-03-12T12:52:54.860Z,3.63
2023-03-12T12:55:29.774Z,2.40
2023-03-12T12:58:01.611Z,2.40
2023-03-12T13:00:45.255Z,3.10
2023-03-12T13:03:24.164Z,2.75
2023-03-12T13:05:58.246Z,2.30
2023-03-12T13:08:58.171Z,1.90
2023-03-12T13:11:31.605Z,2.05
2023-03-12T13:14:36.493Z,2.13
2023-03-12T13:17:27.234Z,2.67
2023-03-12T13:20:14.998Z,2.55
2023-03-12T13:23:09.739Z,2.15
2023-03-12T13:25:56.513Z,1.73
2023-03-12T13:28:36.263Z,2.33
2023-03-12T13:31:36.616Z,1.77
2023-03-12T13:34:42.242Z,2.00
2023-03-12T13:37:32.726Z,1.63
2023-03-12T13:40:08.441Z,2.30
2023-03-12T13:42:40.157Z,2.78
2023-03-12T13:45:30.384Z,2.38
2023-03-12T13:48:06.454Z,3.33
2023-03-12T13:50:43.600Z,2.05
2023-03-12T13:53:21.583Z,2.58
2023-03-12T13:56:03.457Z,1.83
2023-03-12T13:58:34.984Z,2.22
2023-03-12T14:01:06.646Z,1.92
2023-03-12T14:03:40.617Z,3.10
2023-03-12T14:06:16.245Z,3.15
2023-03-12T14:09:06.653Z,2.47
2023-03-12T14:11:49.242Z,3.33
2023-03-12T14:14:41.522Z,2.40
2023-03-12T14:17:18.385Z,3.22
2023-03-12T14:19:50.178Z,2.40
2023-03-12T14:22:22.739Z,2.60
2023-03-12T14:24:58.461Z,2.58
2023-03-12T14:27:29.508Z,2.58
2023-03-12T14:29:59.787Z,3.25
2023-03-12T14:32:32.435Z,2.28
2023-03-12T14:35:12.348Z,2.13
2023-03-12T14:37:45.145Z,2.22
2023-03-12T14:40:25.397Z,1.95
2023-03-12T14:42:55.273Z,2.15
2023-03-12T14:45:24.397Z,2.17
2023-03-12T14:47:56.157Z,2.20
2023-03-12T14:50:29.368Z,2.35
2023-03-12T14:53:13.782Z,2.03
2023-03-12T14:55:43.356Z,2.53
2023-03-12T14:58:18.476Z,2.25
2023-03-12T15:00:49.551Z,2.78
2023-03-12T15:03:19.525Z,2.67
2023-03-12T15:05:48.626Z,2.80
2023-03-12T15:08:18.111Z,2.22
2023-03-12T15:10:52.348Z,2.30
2023-03-12T15:13:25.667Z,2.28
2023-03-12T15:15:55.523Z,2.35
2023-03-12T15:18:29.974Z,2.90
2023-03-12T15:21:03.042Z,2.40
2023-03-12T15:26:14.709Z,2.88
2023-03-12T15:28:43.521Z,3.00
2023-03-12T15:31:15.136Z,2.80
2023-03-12T15:33:46.732Z,1.90
2023-03-12T15:36:37.203Z,2.58
2023-03-12T15:39:27.081Z,2.45
2023-03-12T15:42:00.949Z,2.60
2023-03-12T15:44:33.023Z,2.70
2023-03-12T15:47:07.951Z,2.83
2023-03-12T15:49:41.700Z,1.98
2023-03-12T15:52:29.261Z,3.38
2023-03-12T15:55:04.644Z,2.92
2023-03-12T15:57:35.746Z,2.15
2023-03-12T16:00:32.114Z,2.10
2023-03-12T16:03:06.297Z,2.72
2023-03-12T16:05:37.828Z,2.60
2023-03-12T16:08:16.323Z,2.63
2023-03-12T16:10:47.564Z,3.03
2023-03-12T16:13:19.861Z,3.17
2023-03-12T16:15:49.639Z,2.22
2023-03-12T16:18:25.398Z,2.50
2023-03-12T16:20:56.579Z,2.67
2023-03-12T16:23:26.009Z,2.75
2023-03-12T16:25:56.452Z,2.25
2023-03-12T16:28:28.946Z,2.15
2023-03-12T16:30:57.688Z,2.10
2023-03-12T16:33:26.282Z,2.20
2023-03-12T16:35:55.004Z,2.13
2023-03-12T16:38:24.009Z,2.78
2023-03-12T16:40:54.250Z,2.03
2023-03-12T16:43:28.081Z,3.60
2023-03-12T16:45:57.792Z,2.05
2023-03-12T16:48:27.474Z,2.40
2023-03-12T16:50:57.930Z,2.47
2023-03-12T16:53:26.240Z,2.33
2023-03-12T16:55:56.494Z,2.78
2023-03-12T16:58:31.066Z,2.00
2023-03-12T17:00:59.357Z,2.85
2023-03-12T17:03:37.196Z,2.92
2023-03-12T17:06:14.618Z,2.90
2023-03-12T17:08:43.380Z,3.30
2023-03-12T17:11:19.861Z,2.80
2023-03-12T17:13:55.255Z,2.72
2023-03-12T17:16:26.211Z,2.67
2023-03-12T17:18:55.495Z,2.55
2023-03-12T17:21:24.842Z,2.33
2023-03-12T17:23:53.305Z,3.53
2023-03-12T17:26:22.521Z,2.80
2023-03-12T17:28:52.073Z,3.42
2023-03-12T17:31:24.717Z,2.50
2023-03-12T17:33:54.537Z,3.08
2023-03-12T17:36:24.354Z,2.28
2023-03-12T17:38:53.241Z,2.80
2023-03-12T17:41:26.944Z,2.85
2023-03-12T17:44:01.819Z,2.05
2023-03-12T17:46:32.505Z,2.20
2023-03-12T17:49:00.891Z,2.25
2023-03-12T17:51:30.221Z,2.70
2023-03-12T17:53:58.858Z,2.42
2023-03-12T17:56:31.432Z,2.45
2023-03-12T17:59:04.578Z,2.58
2023-03-12T18:01:33.388Z,2.10
2023-03-12T18:04:02.130Z,2.50
2023-03-12T18:06:31.096Z,2.28
2023-03-12T18:08:59.500Z,3.38
2023-03-12T18:11:28.162Z,2.67
2023-03-12T18:13:58.941Z,2.03
2023-03-12T18:16:28.812Z,1.90
2023-03-12T18:18:59.434Z,2.20
2023-03-12T18:21:29.108Z,2.40
2023-03-12T18:24:02.060Z,2.30
2023-03-12T18:26:36.723Z,2.60
2023-03-12T18:29:05.235Z,2.08
2023-03-12T18:31:35.250Z,2.40
2023-03-12T18:34:03.646Z,3.22
2023-03-12T18:36:32.104Z,2.78
2023-03-12T18:39:04.773Z,2.80
2023-03-12T18:41:32.895Z,2.33
2023-03-12T18:44:01.956Z,2.80
2023-03-12T18:46:31.819Z,3.10
2023-03-12T18:49:06.184Z,2.58
2023-03-12T18:51:34.419Z,3.00
2023-03-12T18:54:05.316Z,2.10
2023-03-12T18:56:34.644Z,2.20
2023-03-12T18:59:03.435Z,2.58
2023-03-12T19:01:31.799Z,2.30
2023-03-12T19:04:02.605Z,2.85
2023-03-12T19:06:44.285Z,2.97
2023-03-12T19:09:21.069Z,2.63
2023-03-12T19:11:49.710Z,2.60
2023-03-12T19:14:23.299Z,2.45
2023-03-12T19:16:51.682Z,2.78
2023-03-12T19:19:20.549Z,3.03
2023-03-12T19:21:57.505Z,3.67
2023-03-12T19:24:26.435Z,3.25
2023-03-12T19:26:55.351Z,2.92
2023-03-12T19:29:23.942Z,2.95
2023-03-12T19:31:55.423Z,2.72
2023-03-12T19:34:24.085Z,2.75
2023-03-12T19:36:53.598Z,4.38
2023-03-12T19:39:23.788Z,3.47
2023-03-12T19:41:52.840Z,3.13
2023-03-12T19:44:21.453Z,2.72
2023-03-12T19:46:49.742Z,2.95
2023-03-12T19:49:18.172Z,2.22
2023-03-12T19:51:46.734Z,3.00
2023-03-12T19:54:16.997Z,3.03
2023-03-12T19:56:45.570Z,2.75
2023-03-12T19:59:14.532Z,2.53
2023-03-12T20:01:43.067Z,3.40
2023-03-12T20:04:14.082Z,3.10
2023-03-12T20:06:43.814Z,3.22
2023-03-12T20:09:14.684Z,2.67
2023-03-12T20:11:44.268Z,3.38
2023-03-12T20:14:12.538Z,3.35
2023-03-12T20:16:40.893Z,4.15
2023-03-12T20:19:12.307Z,4.50
2023-03-12T20:21:41.154Z,4.28
2023-03-12T20:24:09.509Z,4.47
2023-03-12T20:26:39.370Z,4.30
2023-03-12T20:29:11.328Z,4.82
2023-03-12T20:31:39.767Z,4.28
2023-03-12T20:34:10.457Z,4.53
2023-03-12T20:36:39.461Z,5.13
2023-03-12T20:39:08.657Z,4.40
2023-03-12T20:41:36.973Z,4.13
2023-03-12T20:44:06.429Z,6.40
2023-03-12T20:46:39.625Z,5.22
2023-03-12T20:49:08.899Z,4.65
2023-03-12T20:51:37.216Z,4.40
2023-03-12T20:54:05.587Z,3.92
2023-03-12T20:56:34.105Z,3.53
2023-03-12T20:59:02.379Z,4.13
2023-03-12T21:01:33.170Z,4.00
2023-03-12T21:04:05.401Z,4.20
2023-03-12T21:06:33.732Z,3.80
2023-03-12T21:09:02.052Z,4.63
2023-03-12T21:11:31.487Z,3.55
2023-03-12T21:14:00.054Z,4.28
2023-03-12T21:16:29.205Z,4.90
2023-03-12T21:18:57.957Z,4.75
2023-03-12T21:21:29.062Z,4.80
2023-03-12T21:23:59.881Z,4.03
2023-03-12T21:26:28.165Z,5.05
2023-03-12T21:28:56.718Z,4.25
2023-03-12T21:31:26.985Z,4.50
2023-03-12T21:33:56.547Z,4.75
2023-03-12T21:36:26.705Z,3.38
2023-03-12T21:38:57.596Z,4.25
2023-03-12T21:41:26.155Z,4.15
2023-03-12T21:43:54.734Z,3.95
2023-03-12T21:46:27.911Z,3.78
2023-03-12T21:48:57.172Z,3.83
2023-03-12T21:51:26.581Z,4.10
2023-03-12T21:53:56.545Z,3.80
2023-03-12T21:56:29.144Z,4.00
2023-03-12T21:59:00.698Z,3.65
2023-03-12T22:01:30.504Z,3.60
2023-03-12T22:04:01.064Z,2.97
2023-03-12T22:06:34.562Z,3.15
2023-03-12T22:09:05.006Z,2.95
2023-03-12T22:11:35.105Z,3.58
2023-03-12T22:14:04.108Z,3.50
2023-03-12T22:16:35.165Z,3.30
2023-03-12T22:19:04.122Z,3.15
2023-03-12T22:21:33.405Z,2.88
2023-03-12T22:24:04.326Z,3.08
2023-03-12T22:26:33.243Z,3.20
2023-03-12T22:29:02.236Z,3.55
2023-03-12T22:31:31.561Z,2.42
2023-03-12T22:34:02.226Z,2.65
2023-03-12T22:36:31.687Z,2.53
2023-03-12T22:39:00.399Z,3.13
2023-03-12T22:41:31.663Z,2.67
2023-03-12T22:44:12.443Z,2.67
2023-03-12T22:46:41.555Z,2.78
2023-03-12T22:49:11.277Z,2.95
2023-03-12T22:51:39.780Z,3.65
2023-03-12T22:54:08.716Z,3.13
2023-03-12T22:56:38.624Z,3.03
2023-03-12T22:59:09.317Z,3.35
2023-03-12T23:01:38.097Z,4.68
2023-03-12T23:04:08.398Z,5.00
2023-03-12T23:06:37.790Z,4.53
2023-03-12T23:09:07.270Z,3.20
2023-03-12T23:11:35.912Z,4.00
2023-03-12T23:14:05.745Z,4.40
2023-03-12T23:16:36.500Z,3.10
2023-03-12T23:19:05.066Z,3.63
2023-03-12T23:21:36.269Z,2.58
2023-03-12T23:24:07.804Z,2.45
2023-03-12T23:26:36.782Z,3.17
2023-03-12T23:29:06.365Z,2.75
2023-03-12T23:31:34.647Z,2.28
2023-03-12T23:34:03.211Z,2.45
2023-03-12T23:36:33.078Z,3.10
2023-03-12T23:39:03.434Z,2.50
2023-03-12T23:41:32.213Z,2.72
2023-03-12T23:44:02.335Z,2.55
2023-03-12T23:46:33.076Z,2.60
2023-03-12T23:49:02.228Z,2.70
2023-03-12T23:51:33.662Z,2.33
2023-03-12T23:54:05.285Z,2.15
2023-03-12T23:56:37.405Z,2.33
2023-03-12T23:59:06.633Z,2.10
